Time;durP1;ratioP1;P1;durP2;ratioP2;P2;SDS_P1;SDS_P2;PMS_P1;PMS_P2;Temp;Humidity;BMP_temperature;BMP_pressure;BME280_temperature;BME280_humidity;BME280_pressure;Samples;Min_cycle;Max_cycle;Signal;HPM_P1;HPM_P2
2021/07/11 00:00:37;;;;;;;1.87;0.70;;;18.20;92.40;;;;;;5035643;28;20430;-68
2021/07/11 00:03:04;;;;;;;2.03;0.90;;;18.10;92.50;;;;;;5032658;28;20449;-70
2021/07/11 00:05:39;;;;;;;1.80;0.93;;;18.00;92.80;;;;;;5050156;28;20803;-70
2021/07/11 00:08:07;;;;;;;2.30;0.90;;;18.00;93.10;;;;;;5037333;28;20477;-69
2021/07/11 00:10:36;;;;;;;1.70;0.87;;;17.90;93.20;;;;;;5048684;28;20433;-68
2021/07/11 00:13:03;;;;;;;3.80;1.40;;;17.90;93.40;;;;;;5045110;28;20441;-68
2021/07/11 00:15:30;;;;;;;2.10;0.97;;;17.80;93.40;;;;;;5033400;28;20983;-68
2021/07/11 00:17:59;;;;;;;3.03;1.40;;;17.70;93.10;;;;;;5033436;28;20523;-72
2021/07/11 00:20:29;;;;;;;1.70;0.80;;;17.70;93.40;;;;;;5033457;28;20504;-68
2021/07/11 00:22:57;;;;;;;2.37;1.00;;;17.60;93.80;;;;;;5037243;28;20923;-68
2021/07/11 00:25:25;;;;;;;3.00;1.20;;;17.50;94.00;;;;;;5052799;28;20441;-69
2021/07/11 00:27:53;;;;;;;3.53;1.33;;;17.50;94.10;;;;;;5049367;28;21237;-68
2021/07/11 00:30:20;;;;;;;3.13;1.03;;;17.50;94.10;;;;;;5033898;28;20437;-68
2021/07/11 00:32:57;;;;;;;2.00;1.10;;;17.60;94.20;;;;;;5035584;28;20469;-68
2021/07/11 00:35:24;;;;;;;3.63;1.30;;;17.60;94.20;;;;;;5053852;28;20491;-69
2021/07/11 00:37:57;;;;;;;2.40;1.07;;;17.60;94.30;;;;;;5053191;28;20847;-68
2021/07/11 00:40:28;;;;;;;3.57;1.07;;;17.60;94.40;;;;;;5053630;28;20524;-68
2021/07/11 00:42:56;;;;;;;1.97;1.00;;;17.50;94.60;;;;;;5052887;28;20484;-69
2021/07/11 00:45:24;;;;;;;4.23;1.20;;;17.60;94.70;;;;;;5053535;28;20998;-68
2021/07/11 00:47:51;;;;;;;1.80;0.90;;;17.60;94.80;;;;;;5053090;28;20542;-68
2021/07/11 00:50:24;;;;;;;1.93;1.07;;;17.60;94.70;;;;;;5053497;28;20520;-68
2021/07/11 00:52:50;;;;;;;2.63;0.90;;;17.60;94.80;;;;;;5050256;28;20962;-68
2021/07/11 00:55:20;;;;;;;2.13;1.00;;;17.60;94.60;;;;;;5033082;28;20529;-68
2021/07/11 00:57:47;;;;;;;2.00;1.10;;;17.50;94.80;;;;;;5033142;28;20916;-68
2021/07/11 01:00:16;;;;;;;2.10;1.20;;;17.60;95.00;;;;;;5033230;28;20540;-68
2021/07/11 01:02:54;;;;;;;7.17;1.47;;;17.60;95.10;;;;;;5032979;28;20528;-68
2021/07/11 01:05:23;;;;;;;2.37;1.20;;;17.60;95.20;;;;;;5033256;28;20477;-68
2021/07/11 01:08:05;;;;;;;2.00;1.00;;;17.50;94.90;;;;;;5033031;28;20560;-67
2021/07/11 01:10:38;;;;;;;1.47;0.60;;;17.50;95.10;;;;;;5033194;28;20434;-68
2021/07/11 01:13:07;;;;;;;4.37;1.00;;;17.50;95.10;;;;;;5032872;28;20438;-68
2021/07/11 01:15:37;;;;;;;2.57;1.00;;;17.50;94.90;;;;;;5032865;28;20473;-68
2021/07/11 01:18:12;;;;;;;2.07;0.80;;;17.40;94.40;;;;;;5032418;28;20470;-68
2021/07/11 01:20:44;;;;;;;1.70;0.87;;;17.40;94.50;;;;;;5033034;28;20852;-68
2021/07/11 01:23:28;;;;;;;1.70;0.80;;;17.40;94.60;;;;;;5032813;28;20488;-68
2021/07/11 01:25:57;;;;;;;2.27;1.00;;;17.50;94.80;;;;;;5032907;28;20434;-69
2021/07/11 01:28:31;;;;;;;1.80;1.00;;;17.50;94.70;;;;;;5036266;28;20564;-70
2021/07/11 01:31:02;;;;;;;1.80;0.70;;;17.50;94.40;;;;;;5049117;28;20935;-68
2021/07/11 01:33:32;;;;;;;1.70;0.83;;;17.40;94.30;;;;;;5052806;28;20523;-69
2021/07/11 01:36:00;;;;;;;3.00;1.13;;;17.50;94.30;;;;;;5042303;28;20517;-68
2021/07/11 01:38:28;;;;;;;2.43;0.97;;;17.40;93.90;;;;;;5032771;28;20912;-68
2021/07/11 01:41:00;;;;;;;2.50;1.23;;;17.40;94.10;;;;;;5032490;28;20480;-69
2021/07/11 01:43:30;;;;;;;2.20;1.30;;;17.40;94.20;;;;;;5032792;28;20473;-68
2021/07/11 01:45:58;;;;;;;2.10;0.97;;;17.40;94.20;;;;;;5032664;28;20444;-68
2021/07/11 01:48:26;;;;;;;1.63;0.90;;;17.30;93.70;;;;;;5032560;28;20489;-68
2021/07/11 01:50:56;;;;;;;2.80;0.90;;;17.30;94.20;;;;;;5032780;28;20485;-68
2021/07/11 01:53:28;;;;;;;2.43;1.00;;;17.30;94.10;;;;;;5032173;28;20472;-68
2021/07/11 01:55:58;;;;;;;1.70;0.77;;;17.30;94.30;;;;;;5032493;28;20517;-69
2021/07/11 01:58:25;;;;;;;2.30;0.87;;;17.20;94.20;;;;;;5032478;28;20528;-68
2021/07/11 02:00:54;;;;;;;2.23;0.90;;;17.20;93.90;;;;;;5039230;28;20944;-69
2021/07/11 02:03:23;;;;;;;1.60;0.60;;;17.20;94.00;;;;;;5052396;28;20519;-68
2021/07/11 02:05:55;;;;;;;1.50;0.70;;;17.20;93.90;;;;;;5049237;28;20523;-68
2021/07/11 02:08:23;;;;;;;1.60;0.70;;;17.10;94.00;;;;;;5052514;28;20571;-68
2021/07/11 02:10:52;;;;;;;2.33;0.70;;;17.10;94.40;;;;;;5051975;28;20954;-68
2021/07/11 02:13:28;;;;;;;2.17;1.00;;;17.10;94.30;;;;;;5052199;28;20435;-68
2021/07/11 02:15:58;;;;;;;1.80;0.80;;;17.10;94.20;;;;;;5051865;28;20436;-69
2021/07/11 02:18:27;;;;;;;1.40;0.57;;;17.20;94.20;;;;;;5052345;28;20936;-68
2021/07/11 02:20:55;;;;;;;1.80;0.73;;;17.10;94.40;;;;;;5051754;28;20499;-68
2021/07/11 02:23:24;;;;;;;5.73;1.10;;;17.10;94.30;;;;;;5052319;28;20520;-68
2021/07/11 02:25:52;;;;;;;1.80;0.80;;;17.10;94.10;;;;;;5039559;28;20522;-68
2021/07/11 02:28:22;;;;;;;2.00;1.00;;;17.10;94.20;;;;;;5032260;28;20568;-68
2021/07/11 02:30:55;;;;;;;2.50;1.13;;;17.10;94.40;;;;;;5032405;28;20496;-68
2021/07/11 02:33:31;;;;;;;2.27;1.30;;;17.10;94.10;;;;;;5032104;28;20440;-68
2021/07/11 02:36:01;;;;;;;2.13;1.00;;;17.00;94.30;;;;;;5043961;28;20450;-68
2021/07/11 02:38:39;;;;;;;1.80;0.73;;;17.00;94.40;;;;;;5051339;28;20502;-68
2021/07/11 02:41:09;;;;;;;3.00;0.90;;;16.90;94.50;;;;;;5030837;28;20495;-68
2021/07/11 02:43:41;;;;;;;1.53;0.70;;;16.90;94.90;;;;;;5032290;28;20921;-68
2021/07/11 02:46:18;;;;;;;2.10;1.10;;;16.90;95.20;;;;;;5031587;28;20469;-68
2021/07/11 02:48:46;;;;;;;2.10;0.80;;;16.90;94.60;;;;;;5032150;28;20600;-68
2021/07/11 02:51:21;;;;;;;2.87;0.70;;;16.90;95.20;;;;;;5032176;28;20476;-69
2021/07/11 02:53:49;;;;;;;3.20;1.40;;;16.90;94.50;;;;;;5032275;28;20837;-68
2021/07/11 02:56:22;;;;;;;2.63;1.00;;;16.90;94.50;;;;;;5032146;28;20573;-68
2021/07/11 02:58:52;;;;;;;2.10;1.00;;;16.80;94.50;;;;;;5032222;28;20524;-68
2021/07/11 03:01:24;;;;;;;1.60;0.67;;;16.70;94.90;;;;;;5032025;28;20540;-67
2021/07/11 03:03:51;;;;;;;2.03;0.80;;;16.60;95.20;;;;;;5032100;28;20477;-68
2021/07/11 03:06:18;;;;;;;1.70;0.70;;;16.50;95.20;;;;;;5034671;28;20477;-68
2021/07/11 03:08:51;;;;;;;1.70;0.80;;;16.50;95.70;;;;;;5035380;28;20520;-68
2021/07/11 03:11:19;;;;;;;1.90;0.90;;;16.50;96.00;;;;;;5049053;28;20502;-68
2021/07/11 03:13:46;;;;;;;1.60;0.80;;;16.50;95.80;;;;;;5055092;28;20476;-68
2021/07/11 03:16:25;;;;;;;1.70;0.90;;;16.50;96.00;;;;;;5040681;28;20477;-67
2021/07/11 03:18:54;;;;;;;2.37;0.90;;;16.50;96.20;;;;;;5035614;28;20524;-68
2021/07/11 03:21:23;;;;;;;4.20;2.30;;;16.60;96.00;;;;;;5035115;28;20860;-67
2021/07/11 03:23:52;;;;;;;2.30;1.00;;;16.50;96.10;;;;;;5035586;28;20545;-68
2021/07/11 03:26:22;;;;;;;2.00;0.80;;;16.50;95.70;;;;;;5049155;28;20495;-67
2021/07/11 03:28:53;;;;;;;2.33;0.70;;;16.50;95.00;;;;;;5045168;28;20516;-68
2021/07/11 03:31:23;;;;;;;2.47;1.10;;;16.40;95.40;;;;;;5035328;28;20854;-67
2021/07/11 03:34:00;;;;;;;1.80;1.20;;;16.40;95.90;;;;;;5043553;28;20872;-68
2021/07/11 03:36:32;;;;;;;2.17;1.00;;;16.40;96.30;;;;;;5055146;28;20528;-68
2021/07/11 03:39:09;;;;;;;1.57;0.70;;;16.40;95.70;;;;;;5055117;28;20530;-68
2021/07/11 03:41:43;;;;;;;1.50;0.70;;;16.20;96.00;;;;;;5054615;28;20516;-69
2021/07/11 03:44:16;;;;;;;1.70;0.90;;;16.20;96.40;;;;;;5043509;28;20444;-67
2021/07/11 03:46:46;;;;;;;2.17;1.53;;;16.20;96.60;;;;;;5037162;28;20508;-67
2021/07/11 03:49:16;;;;;;;3.23;0.90;;;16.10;96.70;;;;;;5054641;28;20559;-70
2021/07/11 03:51:45;;;;;;;2.00;1.10;;;16.10;96.90;;;;;;5034658;28;20438;-67
2021/07/11 03:54:17;;;;;;;4.03;1.33;;;16.20;97.40;;;;;;5034562;28;20442;-67
2021/07/11 03:56:51;;;;;;;1.70;0.80;;;16.20;97.70;;;;;;5034352;28;20529;-68
2021/07/11 03:59:22;;;;;;;2.47;0.90;;;16.20;97.60;;;;;;5034667;28;20529;-68
2021/07/11 04:01:51;;;;;;;1.50;0.67;;;16.20;97.10;;;;;;5034489;28;20525;-67
2021/07/11 04:04:21;;;;;;;2.23;0.80;;;16.30;97.40;;;;;;5034899;28;20988;-67
2021/07/11 04:06:50;;;;;;;2.10;1.00;;;16.30;97.40;;;;;;5052689;28;20469;-68
2021/07/11 04:09:23;;;;;;;1.67;0.77;;;16.30;97.10;;;;;;5054346;28;20575;-68
2021/07/11 04:11:54;;;;;;;3.50;1.33;;;16.30;97.40;;;;;;5034601;28;20433;-68
2021/07/11 04:14:22;;;;;;;1.63;0.73;;;16.40;97.50;;;;;;5034898;28;20448;-67
2021/07/11 04:17:05;;;;;;;7.13;1.07;;;16.40;97.10;;;;;;5033488;28;21067;-67
2021/07/11 04:19:37;;;;;;;2.23;1.40;;;16.40;97.50;;;;;;5032775;28;20480;-70
2021/07/11 04:22:06;;;;;;;1.80;0.90;;;16.40;97.60;;;;;;5033246;28;20516;-68
2021/07/11 04:24:40;;;;;;;2.10;0.73;;;16.40;97.80;;;;;;5042143;28;20975;-68
2021/07/11 04:27:13;;;;;;;2.60;1.30;;;16.40;97.60;;;;;;5054241;28;20523;-69
2021/07/11 04:29:41;;;;;;;2.03;1.03;;;16.50;97.90;;;;;;5053951;28;20509;-68
2021/07/11 04:32:10;;;;;;;1.63;0.70;;;16.50;97.60;;;;;;5054335;28;20494;-67
2021/07/11 04:34:39;;;;;;;2.10;1.20;;;16.50;97.60;;;;;;5045367;28;20526;-67
2021/07/11 04:37:08;;;;;;;2.67;1.23;;;16.50;97.60;;;;;;5034234;28;20446;-67
2021/07/11 04:39:35;;;;;;;2.27;1.30;;;16.50;97.50;;;;;;5033733;28;20777;-67
2021/07/11 04:42:02;;;;;;;2.10;1.00;;;16.50;97.90;;;;;;5034284;28;20444;-67
2021/07/11 04:44:29;;;;;;;3.60;1.10;;;16.40;97.70;;;;;;5036486;28;20430;-67
2021/07/11 04:47:02;;;;;;;3.30;1.17;;;16.40;97.90;;;;;;5047650;28;20476;-67
2021/07/11 04:49:31;;;;;;;2.00;0.90;;;16.40;97.60;;;;;;5047240;28;20481;-69
2021/07/11 04:51:59;;;;;;;2.30;1.20;;;16.30;98.00;;;;;;5045846;28;20848;-68
2021/07/11 04:54:26;;;;;;;3.20;1.13;;;16.20;98.30;;;;;;5034726;28;20464;-67
2021/07/11 04:57:02;;;;;;;1.57;0.90;;;16.30;98.40;;;;;;5032827;28;21169;-67
2021/07/11 04:59:29;;;;;;;2.53;1.10;;;16.20;98.50;;;;;;5036634;28;20842;-67
2021/07/11 05:01:59;;;;;;;1.73;0.87;;;16.20;98.80;;;;;;5033253;28;20444;-67
2021/07/11 05:04:31;;;;;;;1.90;1.40;;;16.10;99.40;;;;;;5036177;28;20512;-67
2021/07/11 05:06:59;;;;;;;2.40;1.33;;;16.10;99.40;;;;;;5036883;28;20438;-67
2021/07/11 05:09:26;;;;;;;2.60;1.40;;;16.10;99.50;;;;;;5032420;28;20505;-68
2021/07/11 05:11:53;;;;;;;1.90;1.00;;;16.10;99.40;;;;;;5032862;28;20450;-67
2021/07/11 05:14:25;;;;;;;7.50;1.30;;;16.10;99.40;;;;;;5037000;28;20453;-68
2021/07/11 05:16:53;;;;;;;2.37;1.53;;;16.10;99.50;;;;;;5050200;28;20982;-67
2021/07/11 05:19:21;;;;;;;5.73;1.30;;;16.10;99.60;;;;;;5048848;28;20867;-67
2021/07/11 05:21:50;;;;;;;3.20;1.30;;;16.10;99.90;;;;;;5049528;28;20445;-67
2021/07/11 05:24:19;;;;;;;1.80;1.10;;;16.10;99.60;;;;;;5047566;28;20437;-67
2021/07/11 05:26:48;;;;;;;3.83;1.40;;;16.10;99.70;;;;;;5032775;28;20442;-67
2021/07/11 05:29:22;;;;;;;2.70;1.60;;;16.10;99.90;;;;;;5031809;28;20543;-68
2021/07/11 05:31:51;;;;;;;3.40;2.50;;;16.20;99.90;;;;;;5046850;28;20440;-67
2021/07/11 05:34:26;;;;;;;2.30;1.30;;;16.20;99.80;;;;;;5044154;28;20437;-67
2021/07/11 05:36:59;;;;;;;2.30;1.10;;;16.20;99.90;;;;;;5045272;28;20492;-67
2021/07/11 05:39:28;;;;;;;1.60;0.87;;;16.20;99.80;;;;;;5048952;28;20452;-67
2021/07/11 05:41:57;;;;;;;3.70;1.60;;;16.20;99.80;;;;;;5049587;28;20490;-68
2021/07/11 05:44:24;;;;;;;2.10;1.20;;;16.30;99.40;;;;;;5044142;28;20434;-67
2021/07/11 05:46:54;;;;;;;3.47;1.23;;;16.30;99.00;;;;;;5032102;28;20536;-67
2021/07/11 05:49:26;;;;;;;2.67;1.70;;;16.30;99.20;;;;;;5032302;28;20477;-67
2021/07/11 05:51:58;;;;;;;2.73;1.30;;;16.30;99.50;;;;;;5031738;28;20442;-67
2021/07/11 05:54:25;;;;;;;2.30;1.23;;;16.40;99.70;;;;;;5035871;28;20430;-67
2021/07/11 05:56:54;;;;;;;1.77;1.10;;;16.50;99.70;;;;;;5047885;28;20973;-68
2021/07/11 05:59:21;;;;;;;3.80;1.90;;;16.50;99.60;;;;;;5044900;28;20472;-67
2021/07/11 06:01:49;;;;;;;3.87;1.20;;;16.60;99.50;;;;;;5049708;28;20494;-67
2021/07/11 06:04:18;;;;;;;2.47;1.07;;;16.60;98.90;;;;;;5048764;28;20442;-67
2021/07/11 06:06:45;;;;;;;2.23;1.30;;;16.50;98.40;;;;;;5048209;28;20492;-67
2021/07/11 06:09:12;;;;;;;2.30;1.60;;;16.50;98.50;;;;;;5048306;28;20816;-68
2021/07/11 06:11:39;;;;;;;2.20;1.60;;;16.50;98.50;;;;;;5031234;28;20924;-68
2021/07/11 06:14:10;;;;;;;2.50;1.70;;;16.50;98.50;;;;;;5032131;28;20520;-67
2021/07/11 06:16:37;;;;;;;3.17;1.63;;;16.50;98.40;;;;;;5031962;28;20458;-67
2021/07/11 06:19:04;;;;;;;2.53;1.17;;;16.60;98.40;;;;;;5031944;28;20438;-67
2021/07/11 06:21:32;;;;;;;2.70;1.60;;;16.70;99.00;;;;;;5031999;28;20437;-68
2021/07/11 06:23:59;;;;;;;5.10;0.93;;;16.70;98.60;;;;;;5031531;28;20437;-68
2021/07/11 06:26:26;;;;;;;2.90;1.70;;;16.80;99.00;;;;;;5045927;28;20436;-67
2021/07/11 06:28:54;;;;;;;2.53;1.63;;;16.90;99.40;;;;;;5049809;28;21737;-67
2021/07/11 06:31:22;;;;;;;2.03;1.10;;;17.00;99.30;;;;;;5048694;28;20436;-68
2021/07/11 06:33:49;;;;;;;2.20;1.20;;;17.00;99.30;;;;;;5047725;28;20441;-68
2021/07/11 06:36:16;;;;;;;2.23;1.10;;;17.20;99.00;;;;;;5049424;28;20780;-67
2021/07/11 06:38:43;;;;;;;2.70;1.50;;;17.30;99.00;;;;;;5048510;28;20448;-67
2021/07/11 06:41:10;;;;;;;3.10;1.20;;;17.40;98.80;;;;;;5052032;28;20931;-67
2021/07/11 06:43:37;;;;;;;2.03;1.07;;;17.50;98.00;;;;;;5051482;28;20515;-68
2021/07/11 06:46:05;;;;;;;2.60;1.40;;;17.60;98.00;;;;;;5053103;28;20432;-68
2021/07/11 06:48:38;;;;;;;1.97;0.97;;;17.60;97.20;;;;;;5045921;28;20520;-67
2021/07/11 06:51:06;;;;;;;1.70;0.83;;;17.70;96.90;;;;;;5035355;28;20437;-68
2021/07/11 06:53:36;;;;;;;1.70;0.70;;;17.80;97.40;;;;;;5039248;28;20440;-67
2021/07/11 06:56:04;;;;;;;2.63;1.20;;;18.00;97.50;;;;;;5052767;28;20432;-67
2021/07/11 06:58:32;;;;;;;1.70;0.80;;;18.10;97.50;;;;;;5052446;28;20520;-68
2021/07/11 07:01:02;;;;;;;1.50;0.70;;;18.20;96.80;;;;;;5048910;28;20439;-67
2021/07/11 07:03:36;;;;;;;2.00;0.97;;;18.20;96.10;;;;;;5048230;28;20484;-68
2021/07/11 07:06:07;;;;;;;1.87;0.97;;;18.40;96.70;;;;;;5034779;28;20904;-68
2021/07/11 07:08:34;;;;;;;2.00;1.10;;;18.50;96.40;;;;;;5035531;28;20561;-67
2021/07/11 07:11:01;;;;;;;1.80;0.80;;;18.60;95.30;;;;;;5035024;28;20437;-67
2021/07/11 07:13:29;;;;;;;3.17;0.93;;;18.80;95.80;;;;;;5036415;28;20428;-67
2021/07/11 07:16:00;;;;;;;1.90;0.70;;;18.90;95.60;;;;;;5034921;28;20445;-68
2021/07/11 07:18:33;;;;;;;1.70;0.77;;;19.10;94.00;;;;;;5035291;28;20540;-68
2021/07/11 07:21:02;;;;;;;1.90;0.90;;;19.00;94.30;;;;;;5034801;28;20441;-69
2021/07/11 07:23:31;;;;;;;2.30;1.00;;;18.90;93.00;;;;;;5047954;28;20445;-67
2021/07/11 07:26:00;;;;;;;3.90;1.30;;;18.90;93.30;;;;;;5052377;28;20437;-68
2021/07/11 07:28:31;;;;;;;5.53;1.40;;;18.90;94.00;;;;;;5051024;28;20440;-68
2021/07/11 07:30:58;;;;;;;4.43;1.27;;;19.00;94.00;;;;;;5038574;28;20433;-67
2021/07/11 07:33:28;;;;;;;2.63;1.10;;;19.10;93.70;;;;;;5036773;28;20453;-67
2021/07/11 07:35:55;;;;;;;2.00;1.13;;;19.10;94.10;;;;;;5052344;28;21050;-67
2021/07/11 07:38:23;;;;;;;1.90;1.10;;;19.30;95.10;;;;;;5050788;28;20476;-68
2021/07/11 07:40:53;;;;;;;1.97;1.00;;;19.40;94.90;;;;;;5035688;28;20445;-67
2021/07/11 07:43:20;;;;;;;2.13;1.00;;;19.50;93.90;;;;;;5050785;28;20467;-68
2021/07/11 07:45:48;;;;;;;2.40;1.07;;;19.70;93.70;;;;;;5034822;28;20438;-69
2021/07/11 07:48:15;;;;;;;2.30;1.20;;;19.80;93.00;;;;;;5047729;28;20798;-67
2021/07/11 07:50:42;;;;;;;2.03;0.90;;;19.80;92.20;;;;;;5050661;28;20508;-67
2021/07/11 07:53:09;;;;;;;2.13;0.90;;;19.80;92.90;;;;;;5051242;28;20441;-67
2021/07/11 07:55:36;;;;;;;2.17;1.00;;;20.00;93.70;;;;;;5034749;28;20795;-67
2021/07/11 07:58:04;;;;;;;1.80;0.90;;;20.00;93.20;;;;;;5034607;28;20479;-67
2021/07/11 08:00:35;;;;;;;3.20;1.50;;;20.00;92.70;;;;;;5033529;28;20469;-68
2021/07/11 08:03:02;;;;;;;2.00;0.97;;;20.00;93.50;;;;;;5054193;28;20498;-68
2021/07/11 08:05:30;;;;;;;2.37;0.73;;;20.10;93.80;;;;;;5040891;28;20437;-68
2021/07/11 08:07:56;;;;;;;1.67;0.80;;;20.20;93.20;;;;;;5034232;28;20522;-68
2021/07/11 08:10:24;;;;;;;3.10;1.30;;;20.20;90.00;;;;;;5034334;28;20563;-67
2021/07/11 08:12:51;;;;;;;1.80;0.80;;;20.10;89.80;;;;;;5040039;28;20437;-67
2021/07/11 08:15:19;;;;;;;1.87;0.93;;;20.20;90.80;;;;;;5038465;28;20797;-69
2021/07/11 08:17:48;;;;;;;1.97;0.67;;;20.20;90.60;;;;;;5038897;28;20555;-67
2021/07/11 08:20:17;;;;;;;1.80;0.90;;;20.30;90.80;;;;;;5045601;28;20509;-67
2021/07/11 08:22:44;;;;;;;2.10;1.00;;;20.40;90.60;;;;;;5045276;28;20447;-67
2021/07/11 08:25:12;;;;;;;1.70;0.80;;;20.50;90.70;;;;;;5032916;28;20859;-67
2021/07/11 08:27:40;;;;;;;2.10;1.10;;;20.50;89.70;;;;;;5032972;28;20991;-69
2021/07/11 08:30:09;;;;;;;2.47;1.37;;;20.60;89.80;;;;;;5032609;28;20545;-69
2021/07/11 08:32:38;;;;;;;2.43;0.83;;;20.80;90.60;;;;;;5036670;28;20530;-69
2021/07/11 08:35:07;;;;;;;1.70;0.83;;;20.90;89.00;;;;;;5033222;28;20473;-68
2021/07/11 08:37:34;;;;;;;2.30;1.00;;;21.10;90.20;;;;;;5032936;28;20872;-68
2021/07/11 08:40:01;;;;;;;2.07;1.13;;;21.40;90.10;;;;;;5034293;28;20521;-68
2021/07/11 08:42:29;;;;;;;1.70;0.80;;;21.70;90.40;;;;;;5046792;28;20488;-68
2021/07/11 08:44:56;;;;;;;2.40;1.53;;;22.00;91.00;;;;;;5038521;28;20495;-68
2021/07/11 08:47:23;;;;;;;1.80;1.10;;;22.40;90.70;;;;;;5053413;28;20951;-67
2021/07/11 08:49:51;;;;;;;2.23;1.00;;;22.80;90.60;;;;;;5045249;28;20608;-68
2021/07/11 08:52:18;;;;;;;2.20;0.90;;;23.10;90.00;;;;;;5033837;28;20528;-68
2021/07/11 08:54:45;;;;;;;2.53;1.23;;;23.40;87.00;;;;;;5033800;28;20456;-67
2021/07/11 08:57:12;;;;;;;2.23;0.93;;;23.70;87.20;;;;;;5033574;28;20801;-68
2021/07/11 08:59:40;;;;;;;2.33;1.03;;;23.90;75.90;;;;;;5033485;28;20442;-68
2021/07/11 09:02:09;;;;;;;2.10;1.00;;;23.90;76.00;;;;;;5033795;28;20528;-68
2021/07/11 09:04:40;;;;;;;1.90;0.90;;;24.00;74.80;;;;;;5033374;28;20465;-70
2021/07/11 09:07:15;;;;;;;1.57;0.70;;;24.00;75.70;;;;;;5033637;28;21036;-68
2021/07/11 09:09:42;;;;;;;3.40;1.03;;;24.00;76.30;;;;;;5033794;28;20812;-70
2021/07/11 09:12:11;;;;;;;1.90;0.87;;;24.10;75.70;;;;;;5033746;28;20871;-68
2021/07/11 09:14:39;;;;;;;2.17;1.20;;;24.30;76.70;;;;;;5033698;28;20521;-68
2021/07/11 09:17:08;;;;;;;3.17;1.10;;;24.40;76.30;;;;;;5033432;28;21030;-68
2021/07/11 09:19:36;;;;;;;1.80;0.97;;;24.50;76.10;;;;;;5033444;28;20469;-68
2021/07/11 09:22:05;;;;;;;2.20;1.10;;;24.50;75.30;;;;;;5033498;28;20859;-68
2021/07/11 09:24:35;;;;;;;1.93;1.00;;;24.40;73.70;;;;;;5033357;28;20531;-68
2021/07/11 09:27:08;;;;;;;3.13;1.60;;;24.20;74.20;;;;;;5033630;28;20901;-68
2021/07/11 09:29:37;;;;;;;2.10;1.27;;;24.10;73.30;;;;;;5033571;28;20571;-68
2021/07/11 09:32:04;;;;;;;3.13;1.33;;;23.80;73.20;;;;;;5033531;28;20993;-68
2021/07/11 09:34:32;;;;;;;7.10;1.50;;;23.70;73.10;;;;;;5033441;28;20520;-68
2021/07/11 09:37:18;;;;;;;1.90;1.13;;;23.50;73.40;;;;;;5033552;28;20521;-68
2021/07/11 09:39:52;;;;;;;2.10;1.10;;;23.40;74.60;;;;;;5033485;28;20446;-68
2021/07/11 09:42:37;;;;;;;2.10;1.20;;;23.30;73.90;;;;;;5033227;28;20473;-67
2021/07/11 09:45:07;;;;;;;2.17;1.40;;;23.30;76.10;;;;;;5033157;28;20521;-68
2021/07/11 09:47:34;;;;;;;2.27;1.50;;;23.30;77.30;;;;;;5033176;28;20440;-68
2021/07/11 09:50:09;;;;;;;1.90;1.07;;;23.30;75.70;;;;;;5033104;28;20568;-69
2021/07/11 09:52:37;;;;;;;2.70;1.47;;;23.30;74.30;;;;;;5033268;28;20524;-68
2021/07/11 09:55:10;;;;;;;2.27;1.07;;;23.20;72.50;;;;;;5033077;28;20948;-68
2021/07/11 09:57:39;;;;;;;2.83;1.53;;;23.00;73.70;;;;;;5033183;28;20485;-68
2021/07/11 10:00:10;;;;;;;3.00;1.60;;;22.90;74.10;;;;;;5033205;28;20854;-68
2021/07/11 10:02:37;;;;;;;3.57;1.50;;;22.90;74.30;;;;;;5032998;28;20524;-68
2021/07/11 10:05:05;;;;;;;2.40;1.20;;;22.90;74.00;;;;;;5033245;28;20836;-67
2021/07/11 10:07:33;;;;;;;2.30;1.10;;;23.00;73.20;;;;;;5033144;28;20473;-69
2021/07/11 10:10:00;;;;;;;2.10;1.40;;;23.10;74.50;;;;;;5032947;28;20564;-69
2021/07/11 10:12:28;;;;;;;2.60;1.33;;;23.20;74.10;;;;;;5033183;28;20533;-68
2021/07/11 10:14:55;;;;;;;2.73;1.43;;;23.10;73.00;;;;;;5033963;28;20533;-69
2021/07/11 10:17:26;;;;;;;3.13;1.23;;;23.10;74.60;;;;;;5036240;28;20472;-68
2021/07/11 10:19:55;;;;;;;2.43;1.27;;;23.10;74.70;;;;;;5037003;28;20868;-68
2021/07/11 10:22:22;;;;;;;2.60;1.50;;;23.20;75.50;;;;;;5037012;28;20443;-68
2021/07/11 10:24:51;;;;;;;2.77;1.70;;;23.40;76.90;;;;;;5036920;28;20521;-68
2021/07/11 10:27:23;;;;;;;2.20;1.30;;;23.60;78.10;;;;;;5036849;28;20844;-67
2021/07/11 10:29:53;;;;;;;2.10;1.20;;;23.90;77.10;;;;;;5036713;28;20906;-68
2021/07/11 10:32:26;;;;;;;1.93;1.13;;;24.10;75.00;;;;;;5036713;28;20536;-68
2021/07/11 10:34:53;;;;;;;2.33;1.40;;;24.10;71.80;;;;;;5036710;28;20537;-68
2021/07/11 10:37:25;;;;;;;1.80;0.90;;;24.30;72.20;;;;;;5036641;28;20517;-68
2021/07/11 10:40:06;;;;;;;2.10;1.27;;;24.50;72.90;;;;;;5036623;28;20522;-67
2021/07/11 10:42:33;;;;;;;3.40;1.63;;;24.50;71.40;;;;;;5036536;28;20447;-68
2021/07/11 10:45:08;;;;;;;3.20;1.47;;;24.50;71.60;;;;;;5036497;28;20532;-68
2021/07/11 10:47:35;;;;;;;2.30;1.10;;;24.40;69.90;;;;;;5036508;28;20521;-68
2021/07/11 10:50:02;;;;;;;2.00;1.27;;;24.10;69.70;;;;;;5036166;28;20487;-68
2021/07/11 10:52:29;;;;;;;3.20;1.23;;;23.80;68.40;;;;;;5036316;28;20543;-68
2021/07/11 10:54:59;;;;;;;2.47;1.30;;;23.60;69.90;;;;;;5036198;28;21007;-68
2021/07/11 10:57:28;;;;;;;1.90;0.90;;;23.30;70.80;;;;;;5036186;28;20520;-70
2021/07/11 10:59:55;;;;;;;2.70;1.37;;;23.20;71.80;;;;;;5035911;28;20537;-69
2021/07/11 11:02:25;;;;;;;2.20;1.40;;;23.00;72.20;;;;;;5036272;28;20437;-68
2021/07/11 11:04:59;;;;;;;2.20;1.07;;;22.90;72.90;;;;;;5036170;28;20430;-68
2021/07/11 11:07:26;;;;;;;2.60;1.60;;;23.00;73.90;;;;;;5035896;28;20449;-68
2021/07/11 11:09:53;;;;;;;2.23;1.20;;;23.20;74.60;;;;;;5035920;28;20580;-68
2021/07/11 11:12:28;;;;;;;2.60;1.30;;;23.30;75.10;;;;;;5036031;28;20540;-68
2021/07/11 11:14:59;;;;;;;2.30;1.23;;;23.50;77.10;;;;;;5036047;28;20533;-67
2021/07/11 11:17:32;;;;;;;2.80;1.17;;;23.80;77.70;;;;;;5035675;28;20985;-68
2021/07/11 11:20:01;;;;;;;1.80;0.90;;;24.00;77.60;;;;;;5035912;28;20445;-68
2021/07/11 11:22:28;;;;;;;2.47;1.37;;;24.10;76.20;;;;;;5035595;28;20435;-68
2021/07/11 11:24:55;;;;;;;2.10;1.23;;;24.10;70.40;;;;;;5035829;28;20475;-68
2021/07/11 11:27:38;;;;;;;2.37;1.33;;;24.00;70.10;;;;;;5035547;28;20525;-68
2021/07/11 11:30:14;;;;;;;2.87;1.43;;;24.10;69.40;;;;;;5035688;28;20569;-68
2021/07/11 11:32:43;;;;;;;2.53;1.27;;;24.30;70.10;;;;;;5035616;28;20545;-70
2021/07/11 11:35:11;;;;;;;2.87;1.40;;;24.30;68.60;;;;;;5035533;28;20532;-68
2021/07/11 11:37:46;;;;;;;2.20;1.20;;;24.30;67.10;;;;;;5035487;28;20531;-67
2021/07/11 11:40:15;;;;;;;2.40;1.40;;;24.20;66.30;;;;;;5035741;28;20431;-68
2021/07/11 11:42:45;;;;;;;2.60;1.27;;;24.20;68.30;;;;;;5035447;28;20523;-68
2021/07/11 11:45:14;;;;;;;2.00;1.10;;;24.20;68.10;;;;;;5035486;28;20450;-68
2021/07/11 11:47:42;;;;;;;2.63;1.70;;;24.40;67.00;;;;;;5034878;28;20443;-68
2021/07/11 11:50:14;;;;;;;6.60;1.50;;;24.60;64.90;;;;;;5034997;28;20520;-69
2021/07/11 11:52:41;;;;;;;2.10;1.10;;;24.70;64.40;;;;;;5034895;28;20973;-69
2021/07/11 11:55:09;;;;;;;2.17;1.10;;;24.70;65.70;;;;;;5035325;28;20439;-68
2021/07/11 11:57:39;;;;;;;2.80;1.50;;;24.80;65.80;;;;;;5035243;28;20529;-68
2021/07/11 12:00:08;;;;;;;2.83;1.80;;;24.80;66.10;;;;;;5034924;28;20944;-69
2021/07/11 12:02:35;;;;;;;3.13;1.30;;;24.70;65.20;;;;;;5035124;28;20530;-69
2021/07/11 12:05:17;;;;;;;2.47;1.40;;;24.70;64.80;;;;;;5034795;28;20531;-70
2021/07/11 12:07:44;;;;;;;3.43;1.37;;;24.50;66.20;;;;;;5034996;28;20443;-68
2021/07/11 12:10:15;;;;;;;3.37;1.10;;;24.50;68.10;;;;;;5034727;28;20561;-68
2021/07/11 12:12:42;;;;;;;3.93;1.90;;;24.30;69.20;;;;;;5034875;28;20434;-68
2021/07/11 12:15:10;;;;;;;2.40;1.67;;;24.30;71.50;;;;;;5034782;28;20438;-68
2021/07/11 12:17:37;;;;;;;2.53;1.27;;;24.20;71.20;;;;;;5034497;28;20497;-67
2021/07/11 12:20:05;;;;;;;2.90;1.50;;;24.30;72.50;;;;;;5034657;28;20439;-68
2021/07/11 12:22:38;;;;;;;2.40;1.40;;;24.30;71.50;;;;;;5034728;28;20474;-67
2021/07/11 12:25:11;;;;;;;2.00;1.23;;;24.30;69.60;;;;;;5034635;28;20467;-68
2021/07/11 12:27:41;;;;;;;2.67;1.40;;;24.20;70.90;;;;;;5034605;28;20451;-67
2021/07/11 12:30:12;;;;;;;2.10;1.37;;;24.10;71.10;;;;;;5034469;28;20438;-67
2021/07/11 12:32:44;;;;;;;5.50;1.43;;;24.10;72.00;;;;;;5034462;28;20847;-67
2021/07/11 12:35:11;;;;;;;2.93;1.40;;;24.00;71.00;;;;;;5034273;28;20526;-67
2021/07/11 12:37:50;;;;;;;2.70;1.70;;;23.90;69.90;;;;;;5033913;28;20440;-67
2021/07/11 12:40:18;;;;;;;2.60;1.57;;;23.80;72.10;;;;;;5034543;28;20532;-67
2021/07/11 12:42:44;;;;;;;2.30;1.50;;;23.60;74.10;;;;;;5034392;28;20525;-67
2021/07/11 12:45:18;;;;;;;2.40;1.53;;;23.50;72.50;;;;;;5034314;28;20467;-67
2021/07/11 12:47:52;;;;;;;3.20;1.67;;;23.30;74.00;;;;;;5034250;28;20905;-71
2021/07/11 12:50:30;;;;;;;2.80;1.40;;;23.30;75.10;;;;;;5034065;28;20520;-67
2021/07/11 12:52:58;;;;;;;2.60;1.50;;;23.30;74.60;;;;;;5034074;28;20480;-68
2021/07/11 12:55:25;;;;;;;2.27;1.30;;;23.40;75.40;;;;;;5034116;28;20521;-67
2021/07/11 12:57:52;;;;;;;4.70;1.60;;;23.60;76.70;;;;;;5034085;28;20862;-68
2021/07/11 13:00:25;;;;;;;3.17;1.60;;;23.90;77.30;;;;;;5033863;28;20524;-68